Sunday, April 22, 2018, 1:04 AM GMT
Back to Local

CYBG, Bagotville, Que.

Location: , , Canada Lat: 48.333
Local Time: 1:04 AM GMT ( 1:04 GMT) Lon: -71
Time Zone: GMT Elev: 521 ft

Show me the last for .
Show Decoded

2018-04-22 00:00 METAR CYBG 220000Z 28008KT 25SM SCT150 04/M07 A3022 RMK AC4 SLP241 =
2018-04-21 23:00 METAR CYBG 212300Z 28013KT 25SM BKN150 06/M09 A3020 RMK AC6 SLP235 =
2018-04-21 22:00 METAR CYBG 212200Z 28015KT 25SM FEW050 BKN150 06/M08 A3019 RMK SC1AC7 SLP231 =
2018-04-21 21:00 METAR CYBG 212100Z 28015KT 25SM FEW050 BKN140 07/M08 A3019 RMK SC1AC6 SLP230 =
2018-04-21 20:00 METAR CYBG 212000Z 29013G19KT 25SM FEW050 BKN150 07/M08 A3019 RMK SC1AC6 SLP230
                 =
2018-04-21 19:00 METAR CYBG 211900Z 27014G19KT 25SM FEW050 BKN150 07/M03 A3019 RMK SC1AC6 SLP232
                 =
2018-04-21 18:00 METAR CYBG 211800Z 27016KT 25SM FEW050 BKN160 06/M05 A3021 RMK SC2AC6 SLP236 =
2018-04-21 17:00 METAR CYBG 211700Z 28016KT 25SM FEW050 BKN240 06/M01 A3021 RMK SC2CI5 SLP237 =
2018-04-21 16:00 METAR CYBG 211600Z 28017KT 25SM FEW050 BKN240 05/M02 A3021 RMK SC2CI5 SLP239 =
2018-04-21 15:00 METAR CYBG 211500Z 28011KT 25SM FEW050 BKN240 04/M02 A3022 RMK SC2CI3 SLP243 =
2018-04-21 14:00 METAR CYBG 211400Z 27013KT 25SM FEW050 SCT240 03/M02 A3023 RMK SC2CI2 SLP245 =
2018-04-21 13:00 METAR CYBG 211300Z 27013KT 25SM BKN050 02/M03 A3024 RMK SC6 SLP248 =
2018-04-21 12:00 METAR CYBG 211200Z 28012KT 25SM BKN050 01/M03 A3024 RMK SC6 SLP248 =
2018-04-21 11:00 METAR CYBG 211100Z 27008KT 25SM SCT055 BKN100 M01/M05 A3024 RMK SC3AC3 SLP248 =
2018-04-21 10:00 METAR CYBG 211000Z 29006KT 25SM FEW055 SCT100 M00/M05 A3022 RMK SC2AC2 SLP242 =
2018-04-21 09:00 METAR CYBG 210900Z 30008KT 25SM FEW055 00/M05 A3021 RMK SC2 SLP238 =
2018-04-21 08:00 METAR CYBG 210800Z 31009KT 25SM OVC055 02/M04 A3019 RMK SC8 SLP232 =
2018-04-21 07:00 METAR CYBG 210700Z 31007KT 25SM OVC055 02/M03 A3019 RMK SC8 SLP229 =
2018-04-21 06:00 METAR CYBG 210600Z 31008KT 25SM OVC060 03/M04 A3018 RMK SC8 SLP226 =
2018-04-21 05:00 METAR CYBG 210500Z 30007KT 25SM OVC060 03/M03 A3017 RMK SC8 SLP225 =
2018-04-21 04:00 METAR CYBG 210400Z 30007KT 25SM FEW040 OVC060 03/M03 A3017 RMK SC2SC6 SLP224 =
2018-04-21 03:00 METAR CYBG 210300Z 30008KT 20SM OVC069 04/M04 A3016 RMK AC8 SLP222 =
2018-04-21 02:00 METAR CYBG 210200Z 32010KT 25SM OVC067 04/M03 A3016 RMK AC8 SLP220 =

Support USWX by starting your Amazon purchase here.